sensor_id;sensor_type;location;lat;lon;timestamp;temperature;humidity
6865;DHT22;3471;49.678;8.388;2023-03-21T00:01:13;11.10;99.90
6865;DHT22;3471;49.678;8.388;2023-03-21T00:03:39;11.10;99.90
6865;DHT22;3471;49.678;8.388;2023-03-21T00:06:09;11.10;99.90
6865;DHT22;3471;49.678;8.388;2023-03-21T00:08:36;11.10;99.90
6865;DHT22;3471;49.678;8.388;2023-03-21T00:11:04;11.20;99.90
6865;DHT22;3471;49.678;8.388;2023-03-21T00:13:31;11.20;99.90
6865;DHT22;3471;49.678;8.388;2023-03-21T00:16:14;11.20;99.90
6865;DHT22;3471;49.678;8.388;2023-03-21T00:18:46;11.20;99.90
6865;DHT22;3471;49.678;8.388;2023-03-21T00:21:15;11.20;99.90
6865;DHT22;3471;49.678;8.388;2023-03-21T00:23:42;11.20;99.90
6865;DHT22;3471;49.678;8.388;2023-03-21T00:26:07;11.20;99.90
6865;DHT22;3471;49.678;8.388;2023-03-21T00:28:38;11.20;99.90
6865;DHT22;3471;49.678;8.388;2023-03-21T00:31:06;11.20;99.90
6865;DHT22;3471;49.678;8.388;2023-03-21T00:33:33;11.20;99.90
6865;DHT22;3471;49.678;8.388;2023-03-21T00:35:59;11.20;99.90
6865;DHT22;3471;49.678;8.388;2023-03-21T00:38:25;11.20;99.90
6865;DHT22;3471;49.678;8.388;2023-03-21T00:40:51;11.10;99.90
6865;DHT22;3471;49.678;8.388;2023-03-21T00:43:17;11.10;99.90
6865;DHT22;3471;49.678;8.388;2023-03-21T00:45:48;11.10;99.90
6865;DHT22;3471;49.678;8.388;2023-03-21T00:48:14;11.00;99.90
6865;DHT22;3471;49.678;8.388;2023-03-21T00:50:40;11.00;99.90
6865;DHT22;3471;49.678;8.388;2023-03-21T00:53:13;11.00;99.90
6865;DHT22;3471;49.678;8.388;2023-03-21T00:55:40;10.90;99.90
6865;DHT22;3471;49.678;8.388;2023-03-21T00:58:06;10.90;99.90
6865;DHT22;3471;49.678;8.388;2023-03-21T01:00:32;10.90;99.90
6865;DHT22;3471;49.678;8.388;2023-03-21T01:03:01;10.90;99.90
6865;DHT22;3471;49.678;8.388;2023-03-21T01:05:32;10.90;99.90
6865;DHT22;3471;49.678;8.388;2023-03-21T01:08:17;10.90;99.90
6865;DHT22;3471;49.678;8.388;2023-03-21T01:10:46;10.90;99.90
6865;DHT22;3471;49.678;8.388;2023-03-21T01:13:14;10.90;99.90
6865;DHT22;3471;49.678;8.388;2023-03-21T01:15:51;10.90;99.90
6865;DHT22;3471;49.678;8.388;2023-03-21T01:18:19;10.90;99.90
6865;DHT22;3471;49.678;8.388;2023-03-21T01:20:46;11.00;99.90
6865;DHT22;3471;49.678;8.388;2023-03-21T01:23:14;10.90;99.90
6865;DHT22;3471;49.678;8.388;2023-03-21T01:25:40;10.90;99.90
6865;DHT22;3471;49.678;8.388;2023-03-21T01:28:06;10.90;99.90
6865;DHT22;3471;49.678;8.388;2023-03-21T01:30:32;10.90;99.90
6865;DHT22;3471;49.678;8.388;2023-03-21T01:32:57;10.90;99.90
6865;DHT22;3471;49.678;8.388;2023-03-21T01:35:23;10.90;99.90
6865;DHT22;3471;49.678;8.388;2023-03-21T01:37:49;10.90;99.90
6865;DHT22;3471;49.678;8.388;2023-03-21T01:40:24;10.80;99.90
6865;DHT22;3471;49.678;8.388;2023-03-21T01:42:51;10.80;99.90
6865;DHT22;3471;49.678;8.388;2023-03-21T01:48:20;10.70;99.90
6865;DHT22;3471;49.678;8.388;2023-03-21T01:50:48;10.70;99.90
6865;DHT22;3471;49.678;8.388;2023-03-21T01:53:14;10.70;99.90
6865;DHT22;3471;49.678;8.388;2023-03-21T01:55:41;10.70;99.90
6865;DHT22;3471;49.678;8.388;2023-03-21T01:58:08;10.70;99.90
6865;DHT22;3471;49.678;8.388;2023-03-21T02:00:36;10.70;99.90
6865;DHT22;3471;49.678;8.388;2023-03-21T02:03:04;10.70;99.90
6865;DHT22;3471;49.678;8.388;2023-03-21T02:06:01;10.80;99.90
6865;DHT22;3471;49.678;8.388;2023-03-21T02:08:30;10.80;99.90
6865;DHT22;3471;49.678;8.388;2023-03-21T02:10:57;10.80;99.90
6865;DHT22;3471;49.678;8.388;2023-03-21T02:13:23;10.80;99.90
6865;DHT22;3471;49.678;8.388;2023-03-21T02:18:40;10.80;99.90
6865;DHT22;3471;49.678;8.388;2023-03-21T02:39:00;10.90;99.90
6865;DHT22;3471;49.678;8.388;2023-03-21T02:41:46;10.90;99.90
6865;DHT22;3471;49.678;8.388;2023-03-21T02:46:57;10.90;99.90
6865;DHT22;3471;49.678;8.388;2023-03-21T02:49:29;10.80;99.90
6865;DHT22;3471;49.678;8.388;2023-03-21T02:51:58;10.80;99.90
6865;DHT22;3471;49.678;8.388;2023-03-21T02:54:26;10.80;99.90
6865;DHT22;3471;49.678;8.388;2023-03-21T02:56:54;10.80;99.90
6865;DHT22;3471;49.678;8.388;2023-03-21T02:59:22;10.80;99.90
6865;DHT22;3471;49.678;8.388;2023-03-21T03:01:50;10.80;99.90
6865;DHT22;3471;49.678;8.388;2023-03-21T03:04:25;10.80;99.90
6865;DHT22;3471;49.678;8.388;2023-03-21T03:20:44;10.60;99.90
6865;DHT22;3471;49.678;8.388;2023-03-21T03:26:11;10.50;99.90
6865;DHT22;3471;49.678;8.388;2023-03-21T03:28:38;10.50;99.90
6865;DHT22;3471;49.678;8.388;2023-03-21T03:31:06;10.50;99.90
6865;DHT22;3471;49.678;8.388;2023-03-21T03:33:35;10.50;99.90
6865;DHT22;3471;49.678;8.388;2023-03-21T03:36:03;10.50;99.90
6865;DHT22;3471;49.678;8.388;2023-03-21T03:38:29;10.60;99.90
6865;DHT22;3471;49.678;8.388;2023-03-21T03:41:02;10.60;99.90
6865;DHT22;3471;49.678;8.388;2023-03-21T03:43:45;10.60;99.90
6865;DHT22;3471;49.678;8.388;2023-03-21T03:49:00;10.60;99.90
6865;DHT22;3471;49.678;8.388;2023-03-21T03:51:39;10.60;99.90
6865;DHT22;3471;49.678;8.388;2023-03-21T03:54:17;10.60;99.90
6865;DHT22;3471;49.678;8.388;2023-03-21T03:56:46;10.60;99.90
6865;DHT22;3471;49.678;8.388;2023-03-21T03:59:15;10.60;99.90
6865;DHT22;3471;49.678;8.388;2023-03-21T04:01:44;10.60;99.90
6865;DHT22;3471;49.678;8.388;2023-03-21T04:04:10;10.60;99.90
6865;DHT22;3471;49.678;8.388;2023-03-21T04:06:36;10.60;99.90
6865;DHT22;3471;49.678;8.388;2023-03-21T04:09:03;10.60;99.90
6865;DHT22;3471;49.678;8.388;2023-03-21T04:11:29;10.60;99.90
6865;DHT22;3471;49.678;8.388;2023-03-21T04:13:54;10.60;99.90
6865;DHT22;3471;49.678;8.388;2023-03-21T04:16:20;10.60;99.90
6865;DHT22;3471;49.678;8.388;2023-03-21T04:18:47;10.60;99.90
6865;DHT22;3471;49.678;8.388;2023-03-21T04:21:13;10.60;99.90
6865;DHT22;3471;49.678;8.388;2023-03-21T04:23:40;10.60;99.90
6865;DHT22;3471;49.678;8.388;2023-03-21T04:26:06;10.60;99.90
6865;DHT22;3471;49.678;8.388;2023-03-21T04:28:32;10.60;99.90
6865;DHT22;3471;49.678;8.388;2023-03-21T04:31:00;10.60;99.90
6865;DHT22;3471;49.678;8.388;2023-03-21T04:33:26;10.60;99.90
6865;DHT22;3471;49.678;8.388;2023-03-21T04:35:52;10.60;99.90
6865;DHT22;3471;49.678;8.388;2023-03-21T04:38:26;10.60;99.90
6865;DHT22;3471;49.678;8.388;2023-03-21T04:40:55;10.60;99.90
6865;DHT22;3471;49.678;8.388;2023-03-21T04:43:21;10.60;99.90
6865;DHT22;3471;49.678;8.388;2023-03-21T04:45:48;10.60;99.90
6865;DHT22;3471;49.678;8.388;2023-03-21T04:48:14;10.60;99.90
6865;DHT22;3471;49.678;8.388;2023-03-21T04:50:43;10.60;99.90
6865;DHT22;3471;49.678;8.388;2023-03-21T04:53:08;10.60;99.90
6865;DHT22;3471;49.678;8.388;2023-03-21T04:55:34;10.60;99.90
6865;DHT22;3471;49.678;8.388;2023-03-21T04:58:01;10.60;99.90
6865;DHT22;3471;49.678;8.388;2023-03-21T05:00:27;10.60;99.90
6865;DHT22;3471;49.678;8.388;2023-03-21T05:02:53;10.60;99.90
6865;DHT22;3471;49.678;8.388;2023-03-21T05:05:18;10.60;99.90
6865;DHT22;3471;49.678;8.388;2023-03-21T05:07:44;10.60;99.90
6865;DHT22;3471;49.678;8.388;2023-03-21T05:10:10;10.60;99.90
6865;DHT22;3471;49.678;8.388;2023-03-21T05:12:36;10.60;99.90
6865;DHT22;3471;49.678;8.388;2023-03-21T05:15:02;10.60;99.90
6865;DHT22;3471;49.678;8.388;2023-03-21T05:17:28;10.60;99.90
6865;DHT22;3471;49.678;8.388;2023-03-21T05:19:55;10.50;99.90
6865;DHT22;3471;49.678;8.388;2023-03-21T05:22:21;10.50;99.90
6865;DHT22;3471;49.678;8.388;2023-03-21T05:24:49;10.50;99.90
6865;DHT22;3471;49.678;8.388;2023-03-21T05:27:19;10.50;99.90
6865;DHT22;3471;49.678;8.388;2023-03-21T05:30:12;10.50;99.90
6865;DHT22;3471;49.678;8.388;2023-03-21T05:32:38;10.50;99.90
6865;DHT22;3471;49.678;8.388;2023-03-21T05:35:04;10.50;99.90
6865;DHT22;3471;49.678;8.388;2023-03-21T05:37:30;10.40;99.90
6865;DHT22;3471;49.678;8.388;2023-03-21T05:39:55;10.40;99.90
6865;DHT22;3471;49.678;8.388;2023-03-21T05:42:21;10.40;99.90
6865;DHT22;3471;49.678;8.388;2023-03-21T05:44:48;10.40;99.90
6865;DHT22;3471;49.678;8.388;2023-03-21T05:47:16;10.40;99.90
6865;DHT22;3471;49.678;8.388;2023-03-21T05:49:41;10.50;99.90
6865;DHT22;3471;49.678;8.388;2023-03-21T05:52:08;10.50;99.90
6865;DHT22;3471;49.678;8.388;2023-03-21T05:54:34;10.50;99.90
6865;DHT22;3471;49.678;8.388;2023-03-21T05:57:00;10.50;99.90
6865;DHT22;3471;49.678;8.388;2023-03-21T05:59:26;10.50;99.90
6865;DHT22;3471;49.678;8.388;2023-03-21T06:01:51;10.60;99.90
6865;DHT22;3471;49.678;8.388;2023-03-21T06:04:17;10.60;99.90
6865;DHT22;3471;49.678;8.388;2023-03-21T06:06:42;10.60;99.90
6865;DHT22;3471;49.678;8.388;2023-03-21T06:09:08;10.70;99.90
6865;DHT22;3471;49.678;8.388;2023-03-21T06:11:36;10.70;99.90
6865;DHT22;3471;49.678;8.388;2023-03-21T06:14:03;10.80;99.90
6865;DHT22;3471;49.678;8.388;2023-03-21T06:16:29;10.80;99.90
6865;DHT22;3471;49.678;8.388;2023-03-21T06:18:55;10.80;99.90
6865;DHT22;3471;49.678;8.388;2023-03-21T06:21:21;10.90;99.90
6865;DHT22;3471;49.678;8.388;2023-03-21T06:23:47;11.00;99.90
6865;DHT22;3471;49.678;8.388;2023-03-21T06:26:16;11.10;99.90
6865;DHT22;3471;49.678;8.388;2023-03-21T06:28:44;11.20;99.90
6865;DHT22;3471;49.678;8.388;2023-03-21T06:31:10;11.30;99.90
6865;DHT22;3471;49.678;8.388;2023-03-21T06:33:35;11.30;99.90
6865;DHT22;3471;49.678;8.388;2023-03-21T06:36:01;11.40;99.90
6865;DHT22;3471;49.678;8.388;2023-03-21T06:38:26;11.50;99.90
6865;DHT22;3471;49.678;8.388;2023-03-21T06:40:52;11.60;99.90
6865;DHT22;3471;49.678;8.388;2023-03-21T06:43:18;11.60;99.90
6865;DHT22;3471;49.678;8.388;2023-03-21T06:45:44;11.70;99.90
6865;DHT22;3471;49.678;8.388;2023-03-21T06:48:10;11.80;99.90
6865;DHT22;3471;49.678;8.388;2023-03-21T06:50:36;11.80;99.90
6865;DHT22;3471;49.678;8.388;2023-03-21T06:53:02;11.90;99.90
6865;DHT22;3471;49.678;8.388;2023-03-21T06:55:27;11.90;99.90
6865;DHT22;3471;49.678;8.388;2023-03-21T06:57:55;12.00;99.90
6865;DHT22;3471;49.678;8.388;2023-03-21T07:00:25;12.00;99.90
6865;DHT22;3471;49.678;8.388;2023-03-21T07:02:51;12.10;99.90
6865;DHT22;3471;49.678;8.388;2023-03-21T07:05:16;12.10;99.90
6865;DHT22;3471;49.678;8.388;2023-03-21T07:07:42;12.10;99.90
6865;DHT22;3471;49.678;8.388;2023-03-21T07:10:08;12.20;99.90
6865;DHT22;3471;49.678;8.388;2023-03-21T07:12:34;12.20;99.90
6865;DHT22;3471;49.678;8.388;2023-03-21T07:15:05;12.20;99.90
6865;DHT22;3471;49.678;8.388;2023-03-21T07:17:31;12.20;99.90
6865;DHT22;3471;49.678;8.388;2023-03-21T07:19:57;12.30;99.90
6865;DHT22;3471;49.678;8.388;2023-03-21T07:22:23;12.30;99.90
6865;DHT22;3471;49.678;8.388;2023-03-21T07:24:49;12.40;99.90
6865;DHT22;3471;49.678;8.388;2023-03-21T07:27:15;12.40;99.90
6865;DHT22;3471;49.678;8.388;2023-03-21T07:29:41;12.40;99.90
6865;DHT22;3471;49.678;8.388;2023-03-21T07:32:09;12.50;99.90
6865;DHT22;3471;49.678;8.388;2023-03-21T07:34:35;12.50;99.90
6865;DHT22;3471;49.678;8.388;2023-03-21T07:37:00;12.50;99.90
6865;DHT22;3471;49.678;8.388;2023-03-21T07:39:26;12.60;99.90
6865;DHT22;3471;49.678;8.388;2023-03-21T07:41:52;12.60;99.90
6865;DHT22;3471;49.678;8.388;2023-03-21T07:44:21;12.70;99.90
6865;DHT22;3471;49.678;8.388;2023-03-21T07:46:47;12.80;99.90
6865;DHT22;3471;49.678;8.388;2023-03-21T07:49:12;12.90;99.90
6865;DHT22;3471;49.678;8.388;2023-03-21T07:51:38;13.00;99.90
6865;DHT22;3471;49.678;8.388;2023-03-21T07:54:04;13.10;99.90
6865;DHT22;3471;49.678;8.388;2023-03-21T07:56:29;13.20;99.90
6865;DHT22;3471;49.678;8.388;2023-03-21T07:58:55;13.30;99.90
6865;DHT22;3471;49.678;8.388;2023-03-21T08:01:22;13.50;99.90
6865;DHT22;3471;49.678;8.388;2023-03-21T08:03:47;13.70;99.90
6865;DHT22;3471;49.678;8.388;2023-03-21T08:06:13;13.80;99.90
6865;DHT22;3471;49.678;8.388;2023-03-21T08:08:40;13.90;99.90
6865;DHT22;3471;49.678;8.388;2023-03-21T08:11:05;14.10;99.90
6865;DHT22;3471;49.678;8.388;2023-03-21T08:13:32;14.30;99.90
6865;DHT22;3471;49.678;8.388;2023-03-21T08:15:58;14.40;99.90
6865;DHT22;3471;49.678;8.388;2023-03-21T08:18:24;14.60;99.90
6865;DHT22;3471;49.678;8.388;2023-03-21T08:20:54;14.70;99.90
6865;DHT22;3471;49.678;8.388;2023-03-21T08:23:20;14.70;99.90
6865;DHT22;3471;49.678;8.388;2023-03-21T08:25:49;14.80;99.90
6865;DHT22;3471;49.678;8.388;2023-03-21T08:28:16;14.70;99.90
6865;DHT22;3471;49.678;8.388;2023-03-21T08:30:41;14.70;99.90
6865;DHT22;3471;49.678;8.388;2023-03-21T08:33:07;14.70;99.90
6865;DHT22;3471;49.678;8.388;2023-03-21T08:35:33;14.60;99.90
6865;DHT22;3471;49.678;8.388;2023-03-21T08:38:01;14.60;99.90
6865;DHT22;3471;49.678;8.388;2023-03-21T08:40:27;14.60;99.90
6865;DHT22;3471;49.678;8.388;2023-03-21T08:42:53;14.60;99.90
6865;DHT22;3471;49.678;8.388;2023-03-21T08:45:18;14.70;99.90
6865;DHT22;3471;49.678;8.388;2023-03-21T08:47:45;14.60;99.90
6865;DHT22;3471;49.678;8.388;2023-03-21T08:50:13;14.60;99.90
6865;DHT22;3471;49.678;8.388;2023-03-21T08:52:40;14.60;99.90
6865;DHT22;3471;49.678;8.388;2023-03-21T08:55:06;14.60;99.90
6865;DHT22;3471;49.678;8.388;2023-03-21T08:57:31;14.60;99.90
6865;DHT22;3471;49.678;8.388;2023-03-21T08:59:57;14.50;99.90
6865;DHT22;3471;49.678;8.388;2023-03-21T09:02:23;14.50;99.90
6865;DHT22;3471;49.678;8.388;2023-03-21T09:04:48;14.60;99.90
6865;DHT22;3471;49.678;8.388;2023-03-21T09:07:17;14.60;99.90
6865;DHT22;3471;49.678;8.388;2023-03-21T09:09:42;14.70;99.90
6865;DHT22;3471;49.678;8.388;2023-03-21T09:12:08;14.70;99.90
6865;DHT22;3471;49.678;8.388;2023-03-21T09:14:34;14.70;99.90
6865;DHT22;3471;49.678;8.388;2023-03-21T09:17:00;14.60;99.90
6865;DHT22;3471;49.678;8.388;2023-03-21T09:19:26;14.70;99.90
6865;DHT22;3471;49.678;8.388;2023-03-21T09:21:52;14.70;99.90
6865;DHT22;3471;49.678;8.388;2023-03-21T09:24:19;14.70;99.90
6865;DHT22;3471;49.678;8.388;2023-03-21T09:26:45;14.80;99.90
6865;DHT22;3471;49.678;8.388;2023-03-21T09:29:11;14.80;99.90
6865;DHT22;3471;49.678;8.388;2023-03-21T09:31:37;14.90;99.90
6865;DHT22;3471;49.678;8.388;2023-03-21T09:34:04;14.90;99.90
6865;DHT22;3471;49.678;8.388;2023-03-21T09:36:30;15.00;99.90
6865;DHT22;3471;49.678;8.388;2023-03-21T09:38:56;15.10;99.90
6865;DHT22;3471;49.678;8.388;2023-03-21T09:47:18;15.30;99.90
6865;DHT22;3471;49.678;8.388;2023-03-21T09:49:49;15.40;99.90
6865;DHT22;3471;49.678;8.388;2023-03-21T09:52:31;15.40;99.90
6865;DHT22;3471;49.678;8.388;2023-03-21T09:54:58;15.40;99.90
6865;DHT22;3471;49.678;8.388;2023-03-21T09:57:30;15.50;99.90
6865;DHT22;3471;49.678;8.388;2023-03-21T10:00:00;15.50;99.90
6865;DHT22;3471;49.678;8.388;2023-03-21T10:02:43;15.50;99.90
6865;DHT22;3471;49.678;8.388;2023-03-21T10:05:26;15.50;99.90
6865;DHT22;3471;49.678;8.388;2023-03-21T10:10:27;15.60;99.90
6865;DHT22;3471;49.678;8.388;2023-03-21T10:12:54;15.70;99.90
6865;DHT22;3471;49.678;8.388;2023-03-21T10:15:23;15.70;99.90
6865;DHT22;3471;49.678;8.388;2023-03-21T10:18:28;15.60;99.90
6865;DHT22;3471;49.678;8.388;2023-03-21T10:20:54;15.60;99.90
6865;DHT22;3471;49.678;8.388;2023-03-21T10:23:24;15.50;99.90
6865;DHT22;3471;49.678;8.388;2023-03-21T10:26:03;15.50;99.90
6865;DHT22;3471;49.678;8.388;2023-03-21T10:28:34;15.50;99.90
6865;DHT22;3471;49.678;8.388;2023-03-21T10:31:03;15.40;99.90
6865;DHT22;3471;49.678;8.388;2023-03-21T10:33:35;15.40;99.90
6865;DHT22;3471;49.678;8.388;2023-03-21T10:36:06;15.50;99.90
6865;DHT22;3471;49.678;8.388;2023-03-21T10:38:32;15.50;99.90
6865;DHT22;3471;49.678;8.388;2023-03-21T10:40:58;15.50;99.90
6865;DHT22;3471;49.678;8.388;2023-03-21T10:45:54;15.50;99.90
6865;DHT22;3471;49.678;8.388;2023-03-21T10:48:21;15.50;99.90
6865;DHT22;3471;49.678;8.388;2023-03-21T10:50:50;15.60;99.90
6865;DHT22;3471;49.678;8.388;2023-03-21T10:53:28;15.50;99.90
6865;DHT22;3471;49.678;8.388;2023-03-21T10:55:56;15.50;99.90
6865;DHT22;3471;49.678;8.388;2023-03-21T10:58:29;15.50;99.90
6865;DHT22;3471;49.678;8.388;2023-03-21T11:01:01;15.50;99.90
6865;DHT22;3471;49.678;8.388;2023-03-21T11:03:30;15.40;99.90
6865;DHT22;3471;49.678;8.388;2023-03-21T11:09:17;15.30;99.90
6865;DHT22;3471;49.678;8.388;2023-03-21T11:12:08;15.20;99.90
6865;DHT22;3471;49.678;8.388;2023-03-21T11:14:43;15.20;99.90
6865;DHT22;3471;49.678;8.388;2023-03-21T11:17:29;15.20;99.90
6865;DHT22;3471;49.678;8.388;2023-03-21T11:20:07;15.10;99.90
6865;DHT22;3471;49.678;8.388;2023-03-21T11:22:41;15.10;99.90
6865;DHT22;3471;49.678;8.388;2023-03-21T11:25:19;15.10;99.90
6865;DHT22;3471;49.678;8.388;2023-03-21T11:27:50;15.20;99.90
6865;DHT22;3471;49.678;8.388;2023-03-21T11:30:25;15.20;99.90
6865;DHT22;3471;49.678;8.388;2023-03-21T11:33:01;15.30;99.90
6865;DHT22;3471;49.678;8.388;2023-03-21T11:35:35;15.40;99.90
6865;DHT22;3471;49.678;8.388;2023-03-21T11:38:01;15.40;99.90
6865;DHT22;3471;49.678;8.388;2023-03-21T11:40:35;15.60;99.90
6865;DHT22;3471;49.678;8.388;2023-03-21T11:43:03;15.70;99.90
6865;DHT22;3471;49.678;8.388;2023-03-21T11:45:58;15.80;99.90
6865;DHT22;3471;49.678;8.388;2023-03-21T11:48:24;15.90;99.90
6865;DHT22;3471;49.678;8.388;2023-03-21T11:50:57;15.90;99.90
6865;DHT22;3471;49.678;8.388;2023-03-21T11:53:39;16.00;99.90
6865;DHT22;3471;49.678;8.388;2023-03-21T11:59:19;16.00;99.90
6865;DHT22;3471;49.678;8.388;2023-03-21T12:02:17;16.00;99.90
6865;DHT22;3471;49.678;8.388;2023-03-21T12:10:09;16.10;99.90
6865;DHT22;3471;49.678;8.388;2023-03-21T12:15:39;16.20;99.90
6865;DHT22;3471;49.678;8.388;2023-03-21T12:22:13;16.30;99.90
6865;DHT22;3471;49.678;8.388;2023-03-21T12:26:52;16.40;99.90
6865;DHT22;3471;49.678;8.388;2023-03-21T12:34:55;16.50;99.90
6865;DHT22;3471;49.678;8.388;2023-03-21T12:46:02;16.30;99.90
6865;DHT22;3471;49.678;8.388;2023-03-21T12:48:41;16.30;99.90
6865;DHT22;3471;49.678;8.388;2023-03-21T12:51:14;16.20;99.90
6865;DHT22;3471;49.678;8.388;2023-03-21T12:56:14;16.10;99.90
6865;DHT22;3471;49.678;8.388;2023-03-21T12:58:47;16.00;99.90
6865;DHT22;3471;49.678;8.388;2023-03-21T13:01:15;16.00;99.90
6865;DHT22;3471;49.678;8.388;2023-03-21T13:03:47;15.90;99.90
6865;DHT22;3471;49.678;8.388;2023-03-21T13:06:16;15.90;99.90
6865;DHT22;3471;49.678;8.388;2023-03-21T13:09:14;15.80;99.90
6865;DHT22;3471;49.678;8.388;2023-03-21T13:11:38;15.80;99.90
6865;DHT22;3471;49.678;8.388;2023-03-21T13:14:25;15.70;99.90
6865;DHT22;3471;49.678;8.388;2023-03-21T13:16:55;15.60;99.90
6865;DHT22;3471;49.678;8.388;2023-03-21T13:19:30;15.50;99.90
6865;DHT22;3471;49.678;8.388;2023-03-21T13:22:10;15.40;99.90
6865;DHT22;3471;49.678;8.388;2023-03-21T13:24:41;15.40;99.90
6865;DHT22;3471;49.678;8.388;2023-03-21T13:29:51;15.20;99.90
6865;DHT22;3471;49.678;8.388;2023-03-21T13:32:27;15.20;99.90
6865;DHT22;3471;49.678;8.388;2023-03-21T13:34:56;15.10;99.90
6865;DHT22;3471;49.678;8.388;2023-03-21T13:37:26;15.10;99.90
6865;DHT22;3471;49.678;8.388;2023-03-21T13:40:00;15.10;99.90
6865;DHT22;3471;49.678;8.388;2023-03-21T13:42:31;15.10;99.90
6865;DHT22;3471;49.678;8.388;2023-03-21T13:44:59;15.10;99.90
6865;DHT22;3471;49.678;8.388;2023-03-21T13:48:04;15.20;99.90
6865;DHT22;3471;49.678;8.388;2023-03-21T13:50:49;15.20;99.90
6865;DHT22;3471;49.678;8.388;2023-03-21T13:55:43;15.20;99.90
6865;DHT22;3471;49.678;8.388;2023-03-21T13:58:23;15.20;99.90
6865;DHT22;3471;49.678;8.388;2023-03-21T14:03:42;15.10;99.90
6865;DHT22;3471;49.678;8.388;2023-03-21T14:06:09;15.00;99.90
6865;DHT22;3471;49.678;8.388;2023-03-21T14:08:35;15.00;99.90
6865;DHT22;3471;49.678;8.388;2023-03-21T14:11:06;14.90;99.90
6865;DHT22;3471;49.678;8.388;2023-03-21T14:13:33;14.80;99.90
6865;DHT22;3471;49.678;8.388;2023-03-21T14:16:14;14.70;99.90
6865;DHT22;3471;49.678;8.388;2023-03-21T14:18:43;14.60;99.90
6865;DHT22;3471;49.678;8.388;2023-03-21T14:21:19;14.60;99.90
6865;DHT22;3471;49.678;8.388;2023-03-21T14:23:45;14.50;99.90
6865;DHT22;3471;49.678;8.388;2023-03-21T14:26:12;14.50;99.90
6865;DHT22;3471;49.678;8.388;2023-03-21T14:28:46;14.50;99.90
6865;DHT22;3471;49.678;8.388;2023-03-21T14:31:14;14.50;99.90
6865;DHT22;3471;49.678;8.388;2023-03-21T14:33:46;14.40;99.90
6865;DHT22;3471;49.678;8.388;2023-03-21T14:36:37;14.40;99.90
6865;DHT22;3471;49.678;8.388;2023-03-21T14:39:13;14.40;99.90
6865;DHT22;3471;49.678;8.388;2023-03-21T14:41:49;14.50;99.90
6865;DHT22;3471;49.678;8.388;2023-03-21T14:44:22;14.50;99.90
6865;DHT22;3471;49.678;8.388;2023-03-21T14:47:19;14.50;99.90
6865;DHT22;3471;49.678;8.388;2023-03-21T14:49:45;14.50;99.90
6865;DHT22;3471;49.678;8.388;2023-03-21T14:52:17;14.60;99.90
6865;DHT22;3471;49.678;8.388;2023-03-21T14:54:46;14.70;99.90
6865;DHT22;3471;49.678;8.388;2023-03-21T14:57:18;14.70;99.90
6865;DHT22;3471;49.678;8.388;2023-03-21T14:59:47;14.80;99.90
6865;DHT22;3471;49.678;8.388;2023-03-21T15:02:26;14.90;99.90
6865;DHT22;3471;49.678;8.388;2023-03-21T15:04:55;15.00;99.90
6865;DHT22;3471;49.678;8.388;2023-03-21T15:07:33;15.10;99.90
6865;DHT22;3471;49.678;8.388;2023-03-21T15:10:02;15.20;99.90
6865;DHT22;3471;49.678;8.388;2023-03-21T15:12:30;15.20;99.90
6865;DHT22;3471;49.678;8.388;2023-03-21T15:14:57;15.20;99.90
6865;DHT22;3471;49.678;8.388;2023-03-21T15:17:23;15.20;99.90
6865;DHT22;3471;49.678;8.388;2023-03-21T15:19:49;15.20;99.90
6865;DHT22;3471;49.678;8.388;2023-03-21T15:24:47;15.00;99.90
6865;DHT22;3471;49.678;8.388;2023-03-21T15:27:17;14.90;99.90
6865;DHT22;3471;49.678;8.388;2023-03-21T15:29:44;14.80;99.90
6865;DHT22;3471;49.678;8.388;2023-03-21T15:32:20;14.70;99.90
6865;DHT22;3471;49.678;8.388;2023-03-21T15:34:47;14.60;99.90
6865;DHT22;3471;49.678;8.388;2023-03-21T15:37:27;14.60;99.90
6865;DHT22;3471;49.678;8.388;2023-03-21T15:40:07;14.50;99.90
6865;DHT22;3471;49.678;8.388;2023-03-21T15:42:38;14.50;99.90
6865;DHT22;3471;49.678;8.388;2023-03-21T15:45:20;14.40;99.90
6865;DHT22;3471;49.678;8.388;2023-03-21T15:48:20;14.40;99.90
6865;DHT22;3471;49.678;8.388;2023-03-21T15:50:46;14.40;99.90
6865;DHT22;3471;49.678;8.388;2023-03-21T15:53:17;14.40;99.90
6865;DHT22;3471;49.678;8.388;2023-03-21T15:55:49;14.40;99.90
6865;DHT22;3471;49.678;8.388;2023-03-21T15:58:31;14.40;99.90
6865;DHT22;3471;49.678;8.388;2023-03-21T16:01:04;14.30;99.90
6865;DHT22;3471;49.678;8.388;2023-03-21T16:03:35;14.40;99.90
6865;DHT22;3471;49.678;8.388;2023-03-21T16:08:35;14.40;99.90
6865;DHT22;3471;49.678;8.388;2023-03-21T16:11:17;14.40;99.90
6865;DHT22;3471;49.678;8.388;2023-03-21T16:13:43;14.40;99.90
6865;DHT22;3471;49.678;8.388;2023-03-21T16:16:35;14.40;99.90
6865;DHT22;3471;49.678;8.388;2023-03-21T16:19:02;14.30;99.90
6865;DHT22;3471;49.678;8.388;2023-03-21T16:21:30;14.30;99.90
6865;DHT22;3471;49.678;8.388;2023-03-21T16:23:56;14.30;99.90
6865;DHT22;3471;49.678;8.388;2023-03-21T16:26:28;14.30;99.90
6865;DHT22;3471;49.678;8.388;2023-03-21T16:28:54;14.30;99.90
6865;DHT22;3471;49.678;8.388;2023-03-21T16:31:23;14.30;99.90
6865;DHT22;3471;49.678;8.388;2023-03-21T16:33:49;14.20;99.90
6865;DHT22;3471;49.678;8.388;2023-03-21T16:36:28;14.20;99.90
6865;DHT22;3471;49.678;8.388;2023-03-21T16:38:55;14.10;99.90
6865;DHT22;3471;49.678;8.388;2023-03-21T16:41:22;14.10;99.90
6865;DHT22;3471;49.678;8.388;2023-03-21T16:43:48;14.00;99.90
6865;DHT22;3471;49.678;8.388;2023-03-21T16:46:16;14.00;99.90
6865;DHT22;3471;49.678;8.388;2023-03-21T16:48:45;14.00;99.90
6865;DHT22;3471;49.678;8.388;2023-03-21T16:51:16;14.00;99.90
6865;DHT22;3471;49.678;8.388;2023-03-21T16:53:45;13.90;99.90
6865;DHT22;3471;49.678;8.388;2023-03-21T16:56:18;13.90;99.90
6865;DHT22;3471;49.678;8.388;2023-03-21T16:58:44;13.90;99.90
6865;DHT22;3471;49.678;8.388;2023-03-21T17:01:12;13.80;99.90
6865;DHT22;3471;49.678;8.388;2023-03-21T17:03:39;13.80;99.90
6865;DHT22;3471;49.678;8.388;2023-03-21T17:06:05;13.80;99.90
6865;DHT22;3471;49.678;8.388;2023-03-21T17:08:31;13.80;99.90
6865;DHT22;3471;49.678;8.388;2023-03-21T17:10:56;13.70;99.90
6865;DHT22;3471;49.678;8.388;2023-03-21T17:13:24;13.70;99.90
6865;DHT22;3471;49.678;8.388;2023-03-21T17:15:50;13.70;99.90
6865;DHT22;3471;49.678;8.388;2023-03-21T17:18:15;13.70;99.90
6865;DHT22;3471;49.678;8.388;2023-03-21T17:20:41;13.60;99.90
6865;DHT22;3471;49.678;8.388;2023-03-21T17:23:07;13.60;99.90
6865;DHT22;3471;49.678;8.388;2023-03-21T17:25:33;13.60;99.90
6865;DHT22;3471;49.678;8.388;2023-03-21T17:27:58;13.60;99.90
6865;DHT22;3471;49.678;8.388;2023-03-21T17:30:30;13.50;99.90
6865;DHT22;3471;49.678;8.388;2023-03-21T17:32:56;13.50;99.90
6865;DHT22;3471;49.678;8.388;2023-03-21T17:35:23;13.50;99.90
6865;DHT22;3471;49.678;8.388;2023-03-21T17:37:50;13.50;99.90
6865;DHT22;3471;49.678;8.388;2023-03-21T17:40:19;13.40;99.90
6865;DHT22;3471;49.678;8.388;2023-03-21T17:42:45;13.40;99.90
6865;DHT22;3471;49.678;8.388;2023-03-21T17:45:10;13.30;99.90
6865;DHT22;3471;49.678;8.388;2023-03-21T17:47:36;13.30;99.90
6865;DHT22;3471;49.678;8.388;2023-03-21T17:50:04;13.30;99.90
6865;DHT22;3471;49.678;8.388;2023-03-21T17:52:30;13.20;99.90
6865;DHT22;3471;49.678;8.388;2023-03-21T17:54:56;13.20;99.90
6865;DHT22;3471;49.678;8.388;2023-03-21T17:57:21;13.10;99.90
6865;DHT22;3471;49.678;8.388;2023-03-21T17:59:47;13.10;99.90
6865;DHT22;3471;49.678;8.388;2023-03-21T18:02:12;13.10;99.90
6865;DHT22;3471;49.678;8.388;2023-03-21T18:04:38;13.00;99.90